Medicine Lodge, KS

09:47 AM CDT del 02 Settembre 2015 (GMT -0500)
Medicine Lodge | | Change Station
CLOSE
Current Station
Aeroporto
Location: Medicine Lodge,
Altitudine: 1539 ft
Stazioni meteo nelle vicinanze

Alt. 1539 ft 37.28 °N, 98.55 °W | Updated 51 minutes ago

Parzialmente nuvoloso
Parzialmente nuvoloso
77 °F
Sembra 77 °F
N
9
Vento Variabile Vento da Sud
Gusts 17 mph

Oggi
Massima -- | Minima -- °F
--% Possibilità di precip.
Ieri
Massima -- | Minima -- °F
Precip. -- in
7:05 AM 8:01 PM
Gobba a levante, 80% visible
Pressione 29.95 in
Visibilità -9999.0 miglia
Nuvole
Punto di rugiada 64 °F
Umidità 64%
Piovosità 0.00 in
Spessore del manto nevoso Non disponibile.
Raggi UV Non disponibile.
Polline 11.50 fuori da 12
Qualità dell'aria Non disponibile.
Flu Activity Non disponibile.
METAR KP28 021356Z AUTO 17008G15KT 25/18 A3000 RMK AO1 SLP140 T02500178
Pressione 29.95 in
Visibilità -9999.0 miglia
Nuvole
Punto di rugiada 64 °F
Umidità 64%
Piovosità 0.00 in
Spessore del manto nevoso Non disponibile.
Raggi UV Non disponibile.
Polline 11.50 fuori da 12
Qualità dell'aria Non disponibile.
Flu Activity Non disponibile.
METAR KP28 021356Z AUTO 17008G15KT 25/18 A3000 RMK AO1 SLP140 T02500178

10-Day Weather Forecast

×

Almanac

Astronomia

Sep. 02, 2015 Alba Tramonto
Ora attuale
Crepuscolo civile
Crepuscolo nautico
Crepuscolo astronomico
Luna
Estensione della luce visibile
Lunghezza del giorno
Tomorrow will be .
, % of the Moon is Illuminated

Gli estremi di oggi

State Highs State Lows

Community

WunderPhotos

Upload Photos

1,851,763 foto caricate!

WunderBlogs® & News

Nearby

Qualità dell'aria

  Qualità dell'aria Indice AQ Inquinante
Not available.

Profondità neve

Stazione Profondità Altitudine

Attività sismica

Città  Distanza Mag. Data & Ora
Minimo Magnitudo Mostrato è 2.5.

Temperature delle acque costiere

Località Temperatura

Stations

Stazioni meteo nelle vicinanze

Ubicazione della stazione Temp. Raffreddamento del vento Punto di rugiada Umidità Vento Precip. Alt. Aggiornato Tipo